X  Sluiten METAR luchtvaart weer gegevens         EHGG Groningen Airport Eelde
Temperatuur
9°C Temperatuur
4°C Dauwpunt
71% Vochtigheid



Wind
19 KM/U
12 MPH
5 M/S
10 KTS



170°
Z
Huidig weer

Cloudy Bewolkt
Luchtdruk 999 (hPa) - 29.5 (inHg)
Zicht 6 (mijl) - 10 (km)
Vliegveld
Vliegveld code EHGG

Locatie : Groningen Airport Eelde
Afstand: 14 (km)

Metar:
METAR EHGG 010325Z AUTO 17010KT 140V200 9999 OVC028/// 09/04 Q0999

Tijd: 01-03-2024 04:25 CET